KHDE/HDE METAR and TAF weather

Enter ICAO airport designator
Station Type Date Time Source
KHDE METAR 2021/01/17 19:15 UTC NOAA

KHDE 171915Z AUTO 31012G18KT 10SM CLR 07/M06 A2996 RMK AO2 T00651062


Station Type Date Time Source
KHDE Decoded METAR 2021/01/17 19:15 UTC NOAA

Brewster Field Airport, NE, United States (KHDE) 40-27N 099-20W
Jan 17, 2021 - 02:15 PM EST / 2021.01.17 1915 UTC
Wind: from the NW (310 degrees) at 14 MPH (12 KT) gusting to 21 MPH (18 KT):0
Visibility: 10 mile(s):0
Sky conditions: clear
Temperature: 43.7 F (6.5 C)
Dew Point: 20.8 F (-6.2 C)
Relative Humidity: 39%
Pressure (altimeter): 29.96 in. Hg (1014 hPa)
ob: KHDE 171915Z AUTO 31012G18KT 10SM CLR 07/M06 A2996 RMK AO2 T00651062
cycle: 19

Station Type Date Time Source
KHDE TAF UTC NOAA

Error!

Example: see airport list